Time;durP1;ratioP1;P1;durP2;ratioP2;P2;SDS_P1;SDS_P2;PMS_P1;PMS_P2;Temp;Humidity;BMP_temperature;BMP_pressure;BME280_temperature;BME280_humidity;BME280_pressure;Samples;Min_cycle;Max_cycle;Signal;HPM_P1;HPM_P2
2022/08/04 04:23:04;;;;;;;4.75;3.83;;;;;;;19.31;82.69;99889.47;5089329;28;20332;-67
2022/08/04 04:25:42;;;;;;;5.15;4.10;;;;;;;19.38;82.27;99887.44;5088695;28;20075;-64
2022/08/04 04:28:49;;;;;;;5.20;3.80;;;;;;;19.40;81.71;99888.84;5088756;28;20033;-67
2022/08/04 04:31:33;;;;;;;7.20;5.15;;;;;;;19.44;82.05;99889.19;5082837;28;20047;-66
2022/08/04 04:34:26;;;;;;;11.07;6.38;;;;;;;19.49;81.87;99891.97;5088683;28;20036;-66
2022/08/04 04:36:58;;;;;;;10.27;5.78;;;;;;;19.55;81.04;99896.41;5130098;22;20527;-59
2022/08/04 04:39:41;;;;;;;6.75;5.28;;;;;;;19.58;81.10;99887.06;5109131;28;20039;-59
2022/08/04 04:42:31;;;;;;;8.35;4.20;;;;;;;19.60;81.31;99896.53;5109294;28;20031;-46
2022/08/04 04:45:05;;;;;;;11.35;4.72;;;;;;;19.60;81.77;99896.53;5109208;28;20061;-46
2022/08/04 04:47:54;;;;;;;6.93;4.40;;;;;;;19.56;82.85;99898.06;5109222;28;20040;-46
2022/08/04 04:50:39;;;;;;;5.05;3.90;;;;;;;19.56;82.44;99900.78;5108951;28;20046;-48
2022/08/04 04:53:32;;;;;;;7.90;5.68;;;;;;;19.67;81.83;99909.91;5107980;28;20169;-48
2022/08/04 04:56:10;;;;;;;6.35;4.53;;;;;;;19.74;81.90;99906.00;5109247;28;20032;-48
2022/08/04 04:58:38;;;;;;;9.90;6.70;;;;;;;19.79;81.38;99903.41;5109009;28;20472;-47
2022/08/04 05:01:21;;;;;;;14.75;5.35;;;;;;;19.80;81.32;99912.31;5108728;28;20115;-48
2022/08/04 05:06:03;;;;;;;6.93;4.15;;;;;;;19.87;81.62;99909.47;5089215;28;20397;-47
2022/08/04 05:08:34;;;;;;;10.98;6.93;;;;;;;19.95;80.46;99909.91;5088049;28;20101;-48
2022/08/04 05:11:15;;;;;;;15.35;6.47;;;;;;;20.01;80.14;99906.22;5088941;28;20043;-51
2022/08/04 05:13:47;;;;;;;11.82;6.30;;;;;;;20.07;79.80;99912.53;5089237;28;20039;-46
2022/08/04 05:16:26;;;;;;;9.57;5.03;;;;;;;20.14;79.28;99907.78;5089152;28;20512;-48
2022/08/04 05:19:29;;;;;;;7.25;5.07;;;;;;;20.23;79.86;99910.94;5088896;28;20404;-51
2022/08/04 05:22:07;;;;;;;11.75;5.47;;;;;;;20.31;79.90;99907.81;5086824;28;20497;-50
2022/08/04 05:24:38;;;;;;;6.93;5.22;;;;;;;20.38;78.88;99923.88;5089057;28;20032;-48
2022/08/04 05:27:11;;;;;;;10.43;6.97;;;;;;;20.45;79.51;99924.56;5088881;28;20047;-52
2022/08/04 05:29:45;;;;;;;9.13;6.07;;;;;;;20.51;79.49;99927.13;5088646;28;20111;-47
2022/08/04 05:32:13;;;;;;;8.10;4.90;;;;;;;20.58;79.60;99924.25;5088879;28;20036;-46
2022/08/04 05:34:47;;;;;;;6.75;4.28;;;;;;;20.66;78.87;99928.41;5088790;28;20100;-46
2022/08/04 05:37:18;;;;;;;7.60;4.43;;;;;;;20.70;76.97;99933.09;5088826;28;20044;-46
2022/08/04 05:39:53;;;;;;;7.25;3.72;;;;;;;20.77;75.56;99927.53;5088472;28;20090;-47
2022/08/04 05:42:20;;;;;;;5.20;3.85;;;;;;;20.82;75.69;99931.13;5088682;28;20032;-46
2022/08/04 05:44:46;;;;;;;7.30;4.20;;;;;;;20.89;74.12;99930.13;5088571;28;20040;-49
2022/08/04 05:47:14;;;;;;;6.25;4.03;;;;;;;20.99;72.72;99935.69;5088601;28;20472;-50
2022/08/04 05:49:41;;;;;;;7.63;4.72;;;;;;;21.07;73.73;99935.28;5088080;28;20075;-52
2022/08/04 05:52:09;;;;;;;6.57;4.47;;;;;;;21.14;73.95;99941.34;5088479;28;20093;-48
2022/08/04 05:54:37;;;;;;;5.95;3.80;;;;;;;21.22;72.52;99942.78;5088415;28;20051;-47
2022/08/04 05:57:05;;;;;;;6.43;4.05;;;;;;;21.32;73.18;99948.34;5087200;28;20542;-46
2022/08/04 05:59:32;;;;;;;5.53;4.05;;;;;;;21.43;70.17;99938.47;5088063;28;20040;-48
2022/08/04 06:02:00;;;;;;;6.57;3.92;;;;;;;21.52;69.77;99945.94;5088353;28;20626;-47
2022/08/04 06:04:38;;;;;;;7.82;4.25;;;;;;;21.70;69.34;99944.75;5087989;28;20044;-47
2022/08/04 06:07:05;;;;;;;9.70;3.60;;;;;;;21.80;68.55;99944.88;5088181;28;20040;-46
2022/08/04 06:09:30;;;;;;;5.97;4.40;;;;;;;21.95;67.99;99938.81;5087946;28;20036;-48
2022/08/04 06:11:59;;;;;;;6.90;4.40;;;;;;;22.08;67.71;99949.25;5088130;28;20081;-47
2022/08/04 06:14:27;;;;;;;6.55;4.20;;;;;;;22.21;67.38;99942.63;5088118;28;20039;-47
2022/08/04 06:16:54;;;;;;;5.53;4.13;;;;;;;22.28;66.89;99943.22;5073788;28;20025;-50
2022/08/04 06:19:22;;;;;;;6.15;4.15;;;;;;;22.43;65.09;99940.66;5074251;28;20021;-47
2022/08/04 06:21:49;;;;;;;7.82;4.57;;;;;;;22.58;64.70;99936.44;5074406;28;20093;-46
2022/08/04 06:24:18;;;;;;;6.88;4.43;;;;;;;22.71;63.85;99936.00;5074403;28;20076;-47
2022/08/04 06:26:46;;;;;;;4.78;4.05;;;;;;;22.81;64.02;99936.03;5074365;28;20089;-47
2022/08/04 06:29:22;;;;;;;4.80;3.80;;;;;;;22.86;64.54;99938.84;5074028;28;20043;-47
2022/08/04 06:31:58;;;;;;;7.05;4.30;;;;;;;23.01;63.31;99936.19;5074230;28;20056;-46
2022/08/04 06:34:28;;;;;;;5.38;3.70;;;;;;;23.21;62.51;99937.41;5074293;28;20119;-46
2022/08/04 06:36:56;;;;;;;7.97;4.10;;;;;;;23.34;61.84;99949.69;5074191;28;20123;-48
2022/08/04 06:39:22;;;;;;;;;;;;;;;23.50;61.10;99949.50;5074256;28;20044;-49
2022/08/04 06:41:50;;;;;;;6.95;4.30;;;;;;;23.60;60.83;99945.19;5074153;28;20304;-44
2022/08/04 06:44:15;;;;;;;;;;;;;;;23.70;60.56;99942.53;5074370;28;20037;-45
2022/08/04 06:46:42;;;;;;;7.60;4.35;;;;;;;23.84;59.71;99949.09;5073915;28;19969;-46
2022/08/04 06:49:08;;;;;;;11.37;5.00;;;;;;;23.94;59.51;99946.44;5073637;28;20068;-47
2022/08/04 06:51:36;;;;;;;9.00;4.90;;;;;;;24.08;59.18;99938.56;5073948;28;20082;-48
2022/08/04 06:54:02;;;;;;;6.35;5.07;;;;;;;24.26;58.61;99946.22;5073796;28;20047;-45
2022/08/04 06:56:29;;;;;;;6.50;5.00;;;;;;;24.45;57.36;99951.13;5073567;28;20051;-44
2022/08/04 06:58:58;;;;;;;10.68;4.90;;;;;;;24.48;57.34;99948.69;5073668;28;20482;-48
2022/08/04 07:01:25;;;;;;;8.20;5.15;;;;;;;24.63;56.57;99945.97;5073375;28;20041;-48
2022/08/04 07:03:51;;;;;;;;;;;;;;;24.74;56.82;99946.78;5073872;28;20482;-48
2022/08/04 07:06:17;;;;;;;7.80;4.95;;;;;;;24.77;56.85;99943.50;5073512;28;19934;-45
2022/08/04 07:08:43;;;;;;;4.72;3.67;;;;;;;24.88;56.57;99947.03;5073609;28;20052;-46
2022/08/04 07:11:10;;;;;;;7.82;4.13;;;;;;;24.95;56.01;99947.56;5073234;28;20040;-46
2022/08/04 07:13:36;;;;;;;6.10;4.50;;;;;;;25.03;55.98;99946.19;5073391;28;20044;-49
2022/08/04 07:16:04;;;;;;;6.20;4.60;;;;;;;25.19;55.19;99952.47;5073246;28;20041;-50
2022/08/04 07:18:30;;;;;;;7.63;4.28;;;;;;;25.32;54.73;99946.41;5073235;28;20047;-48
2022/08/04 07:20:56;;;;;;;5.93;3.67;;;;;;;25.50;53.56;99940.34;5072904;28;20067;-48
2022/08/04 07:23:24;;;;;;;7.43;3.65;;;;;;;25.66;53.76;99946.56;5073109;28;20331;-46
2022/08/04 07:25:54;;;;;;;8.40;4.03;;;;;;;25.73;53.33;99940.81;5073024;28;20103;-48
2022/08/04 07:28:22;;;;;;;5.50;4.00;;;;;;;25.77;53.42;99945.44;5072172;28;20045;-47
2022/08/04 07:30:48;;;;;;;6.60;3.85;;;;;;;25.82;53.48;99939.97;5072683;28;20032;-51
2022/08/04 07:33:17;;;;;;;11.48;4.65;;;;;;;25.91;53.02;99938.25;5073077;28;20044;-62
2022/08/04 07:35:44;;;;;;;6.57;3.67;;;;;;;26.02;52.39;99943.63;5073004;28;20059;-63
2022/08/04 07:38:11;;;;;;;6.38;3.40;;;;;;;26.04;53.53;99942.28;5072906;28;20442;-62
2022/08/04 07:40:37;;;;;;;4.50;3.92;;;;;;;26.31;51.61;99941.81;5072680;28;20044;-62
2022/08/04 07:43:04;;;;;;;5.55;3.78;;;;;;;26.30;52.21;99947.56;5072367;28;20032;-61
2022/08/04 07:45:29;;;;;;;4.85;3.88;;;;;;;26.33;51.29;99949.72;5064361;28;20032;-62
2022/08/04 07:47:55;;;;;;;8.63;4.80;;;;;;;26.40;51.91;99953.78;5051823;28;20036;-62
2022/08/04 07:50:22;;;;;;;10.02;4.20;;;;;;;26.65;50.24;99955.47;5051423;28;20055;-60
2022/08/04 07:52:48;;;;;;;6.47;3.88;;;;;;;26.76;50.34;99946.09;5051376;28;20374;-61
2022/08/04 07:55:16;;;;;;;7.05;4.05;;;;;;;26.78;50.97;99941.16;5051930;28;20135;-62
2022/08/04 07:57:42;;;;;;;8.13;3.70;;;;;;;27.04;49.00;99954.56;5052655;28;20513;-59
2022/08/04 08:00:13;;;;;;;4.30;3.60;;;;;;;27.09;48.96;99951.81;5052186;28;20060;-61
2022/08/04 08:02:40;;;;;;;7.10;4.10;;;;;;;27.26;49.57;99945.91;5052525;28;20028;-61
2022/08/04 08:05:08;;;;;;;;;;;;;;;27.24;49.77;99946.19;5052657;28;20043;-63
2022/08/04 08:07:33;;;;;;;6.28;3.58;;;;;;;27.43;47.96;99954.44;5052455;28;19959;-62
2022/08/04 08:09:59;;;;;;;7.38;3.47;;;;;;;27.88;46.95;99945.97;5052089;28;20049;-60
2022/08/04 08:12:25;;;;;;;3.30;2.83;;;;;;;27.87;46.15;99939.69;5052306;28;20094;-64
2022/08/04 08:14:51;;;;;;;5.25;3.17;;;;;;;28.29;44.34;99946.97;5052183;28;20044;-63
2022/08/04 08:17:17;;;;;;;3.33;3.00;;;;;;;28.35;43.97;99939.53;5052350;28;20037;-63
2022/08/04 08:19:42;;;;;;;3.55;2.80;;;;;;;28.63;43.02;99951.41;5051927;28;20033;-58
2022/08/04 08:22:10;;;;;;;3.88;2.72;;;;;;;28.81;41.77;99942.28;5052601;28;20064;-58
2022/08/04 08:24:36;;;;;;;4.20;2.92;;;;;;;28.77;42.82;99944.03;5052364;28;20128;-59
2022/08/04 08:27:03;;;;;;;5.32;2.80;;;;;;;29.11;41.17;99940.97;5051920;28;20516;-62
2022/08/04 08:29:29;;;;;;;4.10;2.80;;;;;;;28.94;42.98;99937.97;5051766;28;20033;-57
2022/08/04 08:31:55;;;;;;;3.13;2.63;;;;;;;29.16;41.21;99943.59;5051860;28;20044;-60
2022/08/04 08:34:21;;;;;;;3.55;3.25;;;;;;;29.35;41.80;99940.78;5051817;28;20044;-58
2022/08/04 08:37:00;;;;;;;3.53;2.92;;;;;;;29.57;40.76;99940.06;5051780;28;20033;-60
2022/08/04 08:39:38;;;;;;;3.00;2.70;;;;;;;29.55;40.89;99947.78;5051262;28;20044;-60
2022/08/04 08:42:30;;;;;;;5.35;3.17;;;;;;;29.77;39.42;99932.50;5051663;28;20494;-61
2022/08/04 08:45:11;;;;;;;5.00;2.60;;;;;;;29.97;39.14;99946.59;5051455;28;20108;-60
2022/08/04 08:48:03;;;;;;;4.78;2.70;;;;;;;30.14;39.42;99942.41;5051775;28;20119;-63
2022/08/04 08:50:40;;;;;;;6.07;2.90;;;;;;;30.33;38.53;99943.03;5051456;28;20059;-60
2022/08/04 08:53:24;;;;;;;3.70;2.10;;;;;;;30.59;37.94;99945.16;5051561;28;20059;-61
2022/08/04 08:56:08;;;;;;;3.08;2.55;;;;;;;30.78;37.71;99943.03;5051600;28;20119;-60
2022/08/04 08:58:52;;;;;;;3.47;2.90;;;;;;;30.78;38.33;99943.03;5051471;28;20061;-63
2022/08/04 09:01:39;;;;;;;3.42;2.50;;;;;;;30.86;37.11;99945.03;5049806;28;20059;-66
2022/08/04 09:04:38;;;;;;;3.33;2.35;;;;;;;31.04;37.13;99935.72;5051262;28;20086;-65
2022/08/04 09:07:30;;;;;;;4.40;2.70;;;;;;;31.35;36.58;99937.63;5051344;28;20052;-64
2022/08/04 09:10:07;;;;;;;3.65;2.60;;;;;;;31.45;37.36;99934.59;5049871;28;20029;-65
2022/08/04 09:12:37;;;;;;;4.32;2.70;;;;;;;31.68;36.87;99931.72;5051535;28;20035;-65
2022/08/04 09:15:15;;;;;;;3.70;2.33;;;;;;;31.85;35.85;99932.59;5051388;28;20029;-67
2022/08/04 09:17:54;;;;;;;4.88;2.65;;;;;;;31.94;34.98;99923.53;5051475;28;20037;-66
2022/08/04 09:20:45;;;;;;;8.80;2.65;;;;;;;32.14;34.25;99925.63;5051064;28;20073;-66
2022/08/04 09:23:20;;;;;;;3.70;2.60;;;;;;;32.58;35.54;99931.94;5051168;28;20120;-66
2022/08/04 09:26:01;;;;;;;4.57;2.40;;;;;;;32.51;33.49;99926.91;5051302;28;20032;-66
2022/08/04 09:28:34;;;;;;;2.50;2.28;;;;;;;32.84;33.59;99924.38;5051349;28;20043;-65
2022/08/04 09:31:09;;;;;;;2.63;2.15;;;;;;;33.01;33.81;99925.50;5050937;28;20124;-66
2022/08/04 09:33:53;;;;;;;3.45;2.33;;;;;;;33.25;32.01;99925.69;5051258;28;20478;-65
2022/08/04 09:36:27;;;;;;;2.58;2.10;;;;;;;33.56;32.65;99921.84;5051152;28;20084;-65
2022/08/04 09:39:08;;;;;;;4.40;2.17;;;;;;;33.56;31.98;99922.63;5051083;28;20033;-66
2022/08/04 09:41:50;;;;;;;4.53;2.00;;;;;;;33.76;31.84;99921.03;5051358;28;20036;-65
2022/08/04 09:44:36;;;;;;;3.08;2.35;;;;;;;33.82;31.58;99916.94;5051169;28;20536;-65
2022/08/04 09:47:32;;;;;;;5.17;2.20;;;;;;;34.12;31.26;99916.91;5051073;28;20414;-65
2022/08/04 09:50:22;;;;;;;2.50;2.03;;;;;;;34.42;30.67;99921.19;5050820;28;20044;-66
2022/08/04 09:53:15;;;;;;;2.70;2.15;;;;;;;34.55;30.63;99922.81;5054946;28;20037;-65
2022/08/04 09:56:19;;;;;;;4.05;2.15;;;;;;;34.99;29.97;99919.59;5054877;28;20025;-64
2022/08/04 09:59:15;;;;;;;3.05;2.00;;;;;;;35.27;31.31;99912.22;5054692;28;20040;-66
2022/08/04 10:01:43;;;;;;;3.92;1.98;;;;;;;35.37;29.85;99910.16;5054754;28;20059;-65
2022/08/04 10:04:12;;;;;;;3.53;2.10;;;;;;;35.59;30.38;99910.47;5054458;28;20037;-66
2022/08/04 10:07:18;;;;;;;2.33;2.10;;;;;;;36.06;28.62;99900.78;5054636;28;20051;-65
2022/08/04 10:10:22;;;;;;;2.53;1.90;;;;;;;36.26;28.78;99908.13;5054076;28;20059;-66
2022/08/04 10:12:47;;;;;;;3.72;2.05;;;;;;;36.62;28.32;99903.56;5038360;28;20107;-64
2022/08/04 10:15:20;;;;;;;4.80;2.23;;;;;;;36.94;28.20;99905.22;5054361;28;20032;-65
2022/08/04 10:18:25;;;;;;;3.10;1.75;;;;;;;37.20;28.10;99898.31;5054338;28;20056;-64
2022/08/04 10:21:07;;;;;;;3.85;1.83;;;;;;;37.37;28.15;99899.94;5054012;28;20128;-66
2022/08/04 10:23:35;;;;;;;2.90;2.00;;;;;;;37.66;27.75;99895.78;5054211;28;20033;-66
2022/08/04 10:26:18;;;;;;;2.40;1.90;;;;;;;37.76;27.30;99892.47;5054356;28;20033;-66
2022/08/04 10:28:52;;;;;;;2.88;1.90;;;;;;;37.90;26.99;99889.19;5054116;28;20174;-65
2022/08/04 10:31:31;;;;;;;3.83;1.77;;;;;;;38.12;26.14;99891.22;5053979;28;20053;-65
2022/08/04 10:34:02;;;;;;;2.80;2.20;;;;;;;38.70;25.03;99893.13;5054195;28;20029;-65
2022/08/04 10:36:36;;;;;;;2.53;2.00;;;;;;;38.76;25.85;99892.47;5054463;28;20037;-66
2022/08/04 10:39:11;;;;;;;4.57;3.78;;;;;;;38.98;25.26;99888.06;5054014;28;20041;-65
2022/08/04 10:41:39;;;;;;;3.15;1.90;;;;;;;38.87;24.91;99889.88;5054018;28;20032;-65
2022/08/04 10:44:24;;;;;;;4.78;1.75;;;;;;;39.47;24.54;99886.44;5053933;28;20032;-66
2022/08/04 10:47:07;;;;;;;3.70;1.80;;;;;;;39.69;24.69;99887.56;5053843;28;20436;-66
2022/08/04 10:49:47;;;;;;;2.40;1.90;;;;;;;39.86;23.93;99881.41;5053651;28;20110;-66
2022/08/04 10:52:27;;;;;;;2.03;1.83;;;;;;;39.74;24.69;99873.28;5053780;28;20051;-66
2022/08/04 10:55:10;;;;;;;2.33;1.45;;;;;;;39.65;23.77;99870.81;5053795;28;20040;-66
2022/08/04 10:57:50;;;;;;;2.83;1.73;;;;;;;40.10;24.41;99875.34;5053680;28;20500;-66
2022/08/04 11:00:27;;;;;;;2.33;1.52;;;;;;;39.85;23.34;99880.59;5053339;28;20082;-66
2022/08/04 11:03:07;;;;;;;2.55;1.80;;;;;;;39.63;24.03;99869.56;5053629;28;20079;-66
2022/08/04 11:05:47;;;;;;;2.60;1.73;;;;;;;39.50;23.60;99882.88;5053551;28;20068;-66
2022/08/04 11:08:23;;;;;;;3.47;1.58;;;;;;;40.01;24.29;99877.59;5053552;28;20064;-66
2022/08/04 11:11:04;;;;;;;1.70;1.52;;;;;;;40.46;23.19;99874.91;5051839;28;20493;-66
2022/08/04 11:13:39;;;;;;;2.38;1.52;;;;;;;40.70;22.74;99879.97;5053549;28;20094;-67
2022/08/04 11:16:12;;;;;;;2.33;1.80;;;;;;;40.62;23.37;99875.47;5053452;28;20037;-67
2022/08/04 11:18:53;;;;;;;3.42;1.60;;;;;;;40.45;23.24;99864.94;5053427;28;20033;-66
2022/08/04 11:21:27;;;;;;;4.85;1.45;;;;;;;41.19;21.64;99868.38;5053108;28;20040;-66
2022/08/04 11:24:07;;;;;;;1.60;1.50;;;;;;;40.73;22.43;99870.81;5053235;28;20041;-66
2022/08/04 11:26:42;;;;;;;1.60;1.33;;;;;;;41.29;21.17;99866.88;5053084;28;20041;-66
2022/08/04 11:29:19;;;;;;;1.75;1.30;;;;;;;41.61;21.01;99871.84;5052889;28;20116;-65
2022/08/04 11:31:48;;;;;;;2.47;1.50;;;;;;;41.94;21.51;99870.81;5053170;28;20120;-65
2022/08/04 11:34:21;;;;;;;1.25;1.15;;;;;;;41.72;20.69;99879.06;5052935;28;20127;-65
2022/08/04 11:37:05;;;;;;;1.40;1.30;;;;;;;42.74;19.16;99868.59;5051722;28;20047;-66
2022/08/04 11:39:44;;;;;;;1.63;1.40;;;;;;;42.18;19.49;99867.28;5052574;28;20539;-66
2022/08/04 11:42:26;;;;;;;1.40;1.30;;;;;;;43.23;18.68;99864.16;5052895;28;20045;-66
2022/08/04 11:45:03;;;;;;;2.20;1.20;;;;;;;43.08;18.32;99869.00;5052729;28;20033;-65
2022/08/04 11:47:42;;;;;;;1.25;1.10;;;;;;;43.05;18.60;99857.81;5052783;28;20045;-67
2022/08/04 11:50:24;;;;;;;1.40;1.30;;;;;;;43.42;18.43;99862.13;5052465;28;20049;-66
2022/08/04 11:52:52;;;;;;;2.95;1.00;;;;;;;43.65;17.20;99858.88;5052749;28;20044;-65
2022/08/04 11:55:21;;;;;;;1.27;1.17;;;;;;;43.67;18.89;99860.03;5052422;28;20029;-66
2022/08/04 11:57:48;;;;;;;1.33;0.95;;;;;;;43.48;17.62;99849.31;5052589;28;20037;-67
2022/08/04 12:00:16;;;;;;;2.08;1.38;;;;;;;43.50;18.95;99852.53;5034338;28;20025;-64
2022/08/04 12:02:50;;;;;;;1.40;1.30;;;;;;;42.81;17.89;99843.41;5052551;28;20158;-65
2022/08/04 12:05:20;;;;;;;3.42;1.27;;;;;;;43.53;17.66;99843.28;5052240;28;20056;-67
2022/08/04 12:08:10;;;;;;;1.73;1.23;;;;;;;43.93;19.15;99850.34;5052522;28;20430;-66
2022/08/04 12:10:50;;;;;;;1.30;1.20;;;;;;;44.35;17.34;99846.50;5051981;28;20041;-66
2022/08/04 12:13:44;;;;;;;2.65;1.35;;;;;;;44.45;16.44;99844.81;5051762;28;20135;-66
2022/08/04 12:16:26;;;;;;;1.75;1.20;;;;;;;44.16;16.62;99847.00;5052235;28;20107;-65
2022/08/04 12:19:01;;;;;;;1.63;1.08;;;;;;;44.15;16.85;99834.19;5052060;28;20476;-66
2022/08/04 12:21:36;;;;;;;2.63;1.00;;;;;;;44.16;16.07;99840.59;5052011;28;20437;-66
2022/08/04 12:24:13;;;;;;;1.33;1.13;;;;;;;44.11;16.56;99839.03;5052080;28;20036;-65
2022/08/04 12:26:50;;;;;;;2.70;1.10;;;;;;;43.81;16.69;99836.78;5051920;28;20048;-66
2022/08/04 12:29:19;;;;;;;4.93;1.00;;;;;;;42.95;16.36;99836.19;5051651;28;20025;-65
2022/08/04 12:31:49;;;;;;;1.02;0.93;;;;;;;43.64;16.22;99832.84;5052033;28;20547;-66
2022/08/04 12:34:29;;;;;;;0.85;0.80;;;;;;;43.74;16.94;99825.56;5055723;28;20143;-66
2022/08/04 12:37:00;;;;;;;0.95;0.88;;;;;;;44.05;16.26;99835.03;5061220;28;20375;-66
2022/08/04 12:39:26;;;;;;;2.63;1.00;;;;;;;44.19;16.46;99814.53;5062319;28;20550;-66
2022/08/04 12:42:18;;;;;;;2.78;1.42;;;;;;;44.58;15.78;99819.88;5060592;28;20279;-67
2022/08/04 12:44:46;;;;;;;1.92;1.10;;;;;;;44.51;15.56;99817.91;5060252;28;20040;-67
2022/08/04 12:47:13;;;;;;;3.22;0.90;;;;;;;44.37;14.96;99807.59;5062342;28;20394;-67
2022/08/04 12:49:43;;;;;;;3.20;0.90;;;;;;;44.00;15.44;99818.66;5059970;28;20033;-66
2022/08/04 12:52:09;;;;;;;1.13;1.02;;;;;;;44.47;15.90;99813.50;5061047;28;20054;-66
2022/08/04 12:54:38;;;;;;;0.82;0.82;;;;;;;44.46;15.58;99814.72;5062212;28;20024;-67
2022/08/04 12:57:06;;;;;;;1.48;1.05;;;;;;;44.31;16.47;99814.84;5060724;28;20033;-66
2022/08/04 12:59:58;;;;;;;0.80;0.80;;;;;;;44.63;17.19;99809.00;5060249;28;20024;-67
2022/08/04 13:02:29;;;;;;;1.52;0.80;;;;;;;44.75;15.34;99804.88;5057925;28;20052;-67
2022/08/04 13:04:58;;;;;;;1.42;1.00;;;;;;;44.66;15.07;99801.75;5044542;28;20052;-66
2022/08/04 13:07:26;;;;;;;1.10;0.90;;;;;;;45.03;14.95;99809.44;5060756;28;20393;-67
2022/08/04 13:09:52;;;;;;;1.77;0.73;;;;;;;45.02;15.93;99807.84;5060198;28;20037;-67
2022/08/04 13:12:24;;;;;;;2.00;1.00;;;;;;;44.53;15.75;99798.63;5062097;28;20047;-66
2022/08/04 13:14:57;;;;;;;1.77;1.15;;;;;;;44.79;16.29;99802.03;5061574;28;20383;-66
2022/08/04 13:17:23;;;;;;;0.90;0.90;;;;;;;45.44;15.84;99800.94;5060513;28;20490;-67
2022/08/04 13:19:50;;;;;;;1.83;1.10;;;;;;;45.05;14.98;99787.34;5058727;28;20326;-67
2022/08/04 13:22:27;;;;;;;1.60;0.90;;;;;;;45.09;15.29;99785.28;5053565;28;20040;-66
2022/08/04 13:24:54;;;;;;;1.13;0.85;;;;;;;45.68;15.02;99784.19;5064310;28;20119;-67
2022/08/04 13:27:21;;;;;;;1.20;0.98;;;;;;;45.85;15.11;99771.91;5066204;28;20032;-67
2022/08/04 13:29:49;;;;;;;1.15;0.93;;;;;;;45.71;14.66;99767.28;5069295;28;20040;-67
2022/08/04 13:32:21;;;;;;;2.03;0.90;;;;;;;45.54;15.25;99771.13;5063400;28;20041;-67
2022/08/04 13:34:49;;;;;;;2.72;0.95;;;;;;;44.22;15.10;99758.41;5066926;28;20029;-67
2022/08/04 13:37:16;;;;;;;2.25;0.88;;;;;;;43.82;16.52;99760.69;5067475;28;20056;-67
2022/08/04 13:39:46;;;;;;;1.98;1.20;;;;;;;43.22;16.47;99763.69;5066564;28;20033;-67
2022/08/04 13:42:14;;;;;;;1.30;1.10;;;;;;;42.73;17.82;99752.22;5061767;28;20029;-67
2022/08/04 13:44:45;;;;;;;1.10;1.05;;;;;;;42.16;16.94;99746.63;5054951;28;20455;-65
2022/08/04 13:47:19;;;;;;;1.08;0.80;;;;;;;42.04;17.74;99746.97;5055070;28;20041;-67
2022/08/04 13:50:10;;;;;;;2.13;0.93;;;;;;;41.14;18.05;99737.47;5054680;28;20051;-67
2022/08/04 13:52:35;;;;;;;3.17;1.08;;;;;;;40.86;17.66;99740.09;5054707;28;20032;-67
2022/08/04 13:55:01;;;;;;;1.73;1.00;;;;;;;40.83;18.76;99733.31;5054846;28;20044;-66
2022/08/04 13:57:30;;;;;;;0.95;0.88;;;;;;;40.62;18.09;99739.53;5054751;28;20041;-66
2022/08/04 14:00:06;;;;;;;1.25;1.00;;;;;;;40.39;18.21;99725.81;5053233;28;20512;-66
2022/08/04 14:02:43;;;;;;;2.58;1.13;;;;;;;39.99;17.65;99734.19;5054855;28;20049;-67
2022/08/04 14:05:18;;;;;;;1.75;0.98;;;;;;;39.77;17.02;99724.81;5054507;28;20533;-65
2022/08/04 14:07:53;;;;;;;0.87;0.80;;;;;;;39.42;17.76;99717.63;5054654;28;20112;-66
2022/08/04 14:10:18;;;;;;;1.95;0.70;;;;;;;39.51;18.93;99728.47;5054335;28;20065;-65
2022/08/04 14:12:45;;;;;;;1.98;0.77;;;;;;;39.48;17.18;99721.69;5054613;28;20474;-66
2022/08/04 14:15:40;;;;;;;0.63;0.63;;;;;;;39.38;17.70;99725.13;5054460;28;20116;-66
2022/08/04 14:18:19;;;;;;;2.90;0.63;;;;;;;39.30;17.32;99706.75;5054523;28;20502;-66
2022/08/04 14:21:06;;;;;;;2.33;0.80;;;;;;;39.15;17.24;99713.31;5054194;28;20089;-67
2022/08/04 14:23:37;;;;;;;2.45;0.80;;;;;;;39.19;17.78;99711.38;5054338;28;20102;-67
2022/08/04 14:26:14;;;;;;;1.63;0.70;;;;;;;38.93;17.84;99703.84;5054253;28;20036;-66
2022/08/04 14:28:39;;;;;;;0.70;0.70;;;;;;;38.89;17.73;99706.59;5054273;28;20037;-66
2022/08/04 14:31:17;;;;;;;0.70;0.70;;;;;;;38.95;18.53;99704.28;5054002;28;20036;-66
2022/08/04 14:33:44;;;;;;;0.60;0.60;;;;;;;38.97;17.67;99708.28;5054065;28;20437;-66
2022/08/04 14:36:11;;;;;;;0.80;0.70;;;;;;;38.81;17.36;99699.34;5053587;28;20119;-66
2022/08/04 14:38:48;;;;;;;1.25;0.77;;;;;;;38.86;18.21;99700.97;5054140;28;20040;-66
2022/08/04 14:41:15;;;;;;;2.03;0.68;;;;;;;38.71;16.95;99688.84;5054002;28;20029;-66
2022/08/04 14:44:02;;;;;;;0.70;0.70;;;;;;;38.70;17.10;99698.34;5053981;28;20194;-66
2022/08/04 14:46:28;;;;;;;0.90;0.70;;;;;;;38.72;18.03;99696.00;5054103;28;20036;-67
2022/08/04 14:49:07;;;;;;;1.88;1.10;;;;;;;38.73;17.61;99686.47;5053816;28;20063;-66
2022/08/04 14:51:39;;;;;;;1.75;0.90;;;;;;;38.72;18.15;99690.44;5053801;28;20128;-66
2022/08/04 14:54:05;;;;;;;2.00;0.68;;;;;;;38.68;17.98;99686.81;5052739;28;20051;-66
2022/08/04 14:56:31;;;;;;;;;;;;;;;38.58;17.46;99681.88;5054134;28;20383;-66
2022/08/04 14:58:58;;;;;;;;;;;;;;;38.59;17.23;99680.69;5054075;28;20401;-66
2022/08/04 15:01:24;;;;;;;1.52;1.30;;;;;;;38.51;17.88;99682.56;5053658;28;20325;-67
2022/08/04 15:03:52;;;;;;;1.58;1.30;;;;;;;38.32;17.59;99685.44;5053519;28;20033;-66
2022/08/04 15:08:05;;;;;;;1.83;1.10;;;;;;;38.26;18.33;99679.41;5089137;28;20332;-66
2022/08/04 15:10:31;;;;;;;1.55;1.00;;;;;;;38.29;18.25;99678.66;5088875;28;20136;-67
2022/08/04 15:12:57;;;;;;;2.43;0.90;;;;;;;38.24;19.20;99681.72;5089030;28;20131;-67
2022/08/04 15:15:23;;;;;;;0.80;0.80;;;;;;;38.18;20.06;99680.44;5089150;28;20142;-66
2022/08/04 15:17:50;;;;;;;2.00;1.52;;;;;;;38.18;19.12;99681.25;5089092;28;20115;-66
2022/08/04 15:20:17;;;;;;;1.55;1.00;;;;;;;38.17;17.19;99682.41;5088700;28;20036;-65
2022/08/04 15:22:42;;;;;;;1.48;0.80;;;;;;;38.16;16.61;99675.25;5087772;28;20032;-67
2022/08/04 15:25:08;;;;;;;1.43;0.90;;;;;;;38.09;16.26;99674.34;5088838;28;20058;-66
2022/08/04 15:27:37;;;;;;;0.70;0.70;;;;;;;38.16;16.72;99674.47;5088922;28;20028;-66
2022/08/04 15:30:07;;;;;;;0.88;0.80;;;;;;;38.11;15.56;99677.53;5088611;28;20060;-65
2022/08/04 15:32:35;;;;;;;3.03;0.90;;;;;;;38.08;15.24;99683.84;5088918;28;20032;-65
2022/08/04 15:35:08;;;;;;;1.00;0.80;;;;;;;38.07;16.16;99679.44;5088701;28;20044;-66
2022/08/04 15:37:49;;;;;;;1.55;0.90;;;;;;;37.98;15.92;99674.16;5088783;28;20631;-67
2022/08/04 15:40:18;;;;;;;1.20;1.10;;;;;;;38.00;16.80;99675.38;5088439;28;20042;-67
2022/08/04 15:43:04;;;;;;;2.05;0.80;;;;;;;37.99;16.58;99675.75;5088950;28;20068;-67
2022/08/04 15:45:48;;;;;;;1.98;0.80;;;;;;;37.96;16.93;99677.31;5088774;28;20052;-67
2022/08/04 15:48:16;;;;;;;2.03;1.00;;;;;;;37.94;17.14;99674.09;5088599;28;20068;-67
2022/08/04 15:51:04;;;;;;;0.70;0.70;;;;;;;37.80;15.61;99668.28;5088391;28;20115;-66
2022/08/04 15:53:38;;;;;;;1.65;1.20;;;;;;;37.83;16.20;99667.56;5086916;28;20504;-66
2022/08/04 15:56:35;;;;;;;1.08;0.98;;;;;;;37.79;17.16;99661.09;5088031;28;20056;-66
2022/08/04 15:59:01;;;;;;;3.78;1.35;;;;;;;37.72;17.70;99655.41;5087987;28;20104;-66
2022/08/04 16:01:26;;;;;;;1.23;1.13;;;;;;;37.69;17.13;99662.53;5088302;28;20063;-67
2022/08/04 16:03:53;;;;;;;1.83;0.90;;;;;;;37.68;16.27;99660.88;5088146;28;20658;-66
2022/08/04 16:06:21;;;;;;;1.25;1.13;;;;;;;37.70;16.79;99658.56;5087935;28;20111;-66
2022/08/04 16:08:46;;;;;;;0.82;0.82;;;;;;;37.64;15.83;99659.25;5087964;28;20161;-66
2022/08/04 16:11:32;;;;;;;0.90;0.90;;;;;;;37.56;15.57;99649.97;5087974;28;20122;-66
2022/08/04 16:13:58;;;;;;;0.80;0.80;;;;;;;37.47;14.81;99650.19;5087662;28;20121;-66
2022/08/04 16:16:36;;;;;;;2.43;0.93;;;;;;;37.43;15.42;99648.50;5087836;28;20058;-66
2022/08/04 16:19:09;;;;;;;1.33;0.98;;;;;;;37.40;15.92;99643.72;5076525;28;20036;-65
2022/08/04 16:21:47;;;;;;;2.08;1.23;;;;;;;37.36;16.77;99646.41;5074484;28;20397;-66
2022/08/04 16:24:20;;;;;;;2.28;1.30;;;;;;;37.30;16.39;99645.09;5074311;28;20497;-66
2022/08/04 16:26:56;;;;;;;1.52;1.00;;;;;;;37.25;17.78;99645.38;5074236;28;20048;-66
2022/08/04 16:29:21;;;;;;;4.35;1.10;;;;;;;37.22;17.70;99635.00;5074006;28;20024;-66
2022/08/04 16:32:11;;;;;;;2.23;1.30;;;;;;;37.18;17.77;99639.69;5072853;28;20039;-67